Time;durP1;ratioP1;P1;durP2;ratioP2;P2;SDS_P1;SDS_P2;PMS_P1;PMS_P2;Temp;Humidity;BMP_temperature;BMP_pressure;BME280_temperature;BME280_humidity;BME280_pressure;Samples;Min_cycle;Max_cycle;Signal;HPM_P1;HPM_P2
2021/03/19 00:00:14;;;;;;;3.88;2.42;;;2.00;99.90;;;1.35;66.76;100662.25;5022982;28;20328;-46
2021/03/19 00:02:41;;;;;;;5.03;2.10;;;1.90;99.90;;;1.27;66.95;100655.78;5012061;28;20041;-45
2021/03/19 00:05:11;;;;;;;9.10;2.60;;;1.90;99.90;;;1.21;67.33;100652.72;5007073;28;20029;-42
2021/03/19 00:07:54;;;;;;;3.15;1.80;;;1.80;99.90;;;1.20;67.95;100648.47;5007744;28;20057;-43
2021/03/19 00:10:30;;;;;;;2.97;1.33;;;1.80;99.90;;;1.21;67.30;100647.56;5008907;28;20376;-44
2021/03/19 00:13:00;;;;;;;4.97;1.35;;;1.80;99.90;;;1.24;67.60;100644.84;5009009;28;20041;-46
2021/03/19 00:15:27;;;;;;;5.82;2.15;;;1.80;99.90;;;1.19;67.32;100657.09;4991441;28;20034;-42
2021/03/19 00:17:54;;;;;;;3.53;1.75;;;1.70;99.90;;;1.16;67.20;100657.25;4995237;28;20508;-44
2021/03/19 00:20:22;;;;;;;4.00;1.90;;;1.70;99.90;;;1.13;67.07;100647.13;5008440;28;20071;-42
2021/03/19 00:22:48;;;;;;;4.75;1.50;;;1.70;99.90;;;1.12;67.05;100655.75;5011225;28;20037;-43
2021/03/19 00:25:15;;;;;;;2.83;1.30;;;1.70;99.90;;;1.12;67.26;100641.19;5007114;28;20034;-44
2021/03/19 00:27:41;;;;;;;4.18;1.85;;;1.70;99.90;;;1.10;67.40;100644.72;5011073;28;20076;-43
2021/03/19 00:30:11;;;;;;;3.22;1.40;;;1.70;99.90;;;1.12;67.14;100643.75;5006656;28;20312;-43
2021/03/19 00:32:39;;;;;;;3.58;1.40;;;1.70;99.90;;;1.11;66.47;100643.81;4991127;28;20042;-43
2021/03/19 00:35:07;;;;;;;3.42;1.08;;;1.70;99.90;;;1.11;66.80;100633.56;5018351;28;20042;-42
2021/03/19 00:37:33;;;;;;;2.65;1.17;;;1.70;99.90;;;1.11;66.75;100628.44;5010893;28;20050;-46
2021/03/19 00:40:04;;;;;;;6.43;2.00;;;1.70;99.90;;;1.07;66.56;100635.47;5008332;28;20050;-44
2021/03/19 00:42:30;;;;;;;4.05;2.00;;;1.60;99.90;;;1.05;66.53;100634.72;4991688;28;20042;-45
2021/03/19 00:44:56;;;;;;;4.68;1.60;;;1.60;99.90;;;1.03;66.45;100628.81;5006258;28;20408;-42
2021/03/19 00:47:22;;;;;;;2.72;1.70;;;1.60;99.90;;;1.00;66.35;100634.94;5010692;28;20041;-44
2021/03/19 00:49:48;;;;;;;3.80;1.00;;;1.60;99.90;;;1.05;66.87;100633.88;5002655;28;20049;-42
2021/03/19 00:52:14;;;;;;;3.53;1.33;;;1.60;99.90;;;1.07;66.42;100627.75;4991863;28;20038;-42
2021/03/19 00:54:40;;;;;;;5.93;1.67;;;1.60;99.90;;;1.00;66.57;100632.38;4991938;28;20038;-47
2021/03/19 00:57:05;;;;;;;5.78;2.05;;;1.60;99.90;;;0.92;66.81;100634.53;4999004;28;20116;-42
2021/03/19 00:59:31;;;;;;;4.15;1.60;;;1.50;99.90;;;0.85;67.83;100643.44;4997816;28;20168;-46
2021/03/19 01:01:58;;;;;;;2.97;1.80;;;1.50;99.90;;;0.84;68.00;100639.22;5009296;28;20044;-44
2021/03/19 01:04:24;;;;;;;4.82;1.65;;;1.40;99.90;;;0.78;68.61;100642.09;5006843;28;20038;-48
2021/03/19 01:06:50;;;;;;;4.35;1.80;;;1.40;99.90;;;0.69;69.11;100639.16;5010262;28;20038;-43
2021/03/19 01:09:16;;;;;;;3.85;1.90;;;1.30;99.90;;;0.61;69.56;100632.69;5006499;28;20404;-43
2021/03/19 01:11:42;;;;;;;3.60;1.90;;;1.20;99.90;;;0.50;69.41;100626.44;5024229;28;20037;-43
2021/03/19 01:14:08;;;;;;;6.53;2.10;;;1.20;99.90;;;0.47;69.71;100624.06;5008504;28;20115;-45
2021/03/19 01:16:34;;;;;;;4.68;2.20;;;1.10;99.90;;;0.43;69.42;100622.53;5009710;28;20048;-44
2021/03/19 01:19:02;;;;;;;3.42;2.15;;;1.00;99.90;;;0.42;69.07;100626.00;5004606;28;20041;-45
2021/03/19 01:21:28;;;;;;;6.22;2.30;;;1.00;99.90;;;0.45;68.37;100618.16;5009030;28;20077;-44
2021/03/19 01:23:54;;;;;;;6.38;1.65;;;1.10;99.90;;;0.50;68.44;100617.00;5006486;28;20449;-42
2021/03/19 01:26:20;;;;;;;3.40;2.03;;;1.10;99.90;;;0.46;68.19;100619.81;5024897;28;20042;-43
2021/03/19 01:28:47;;;;;;;5.28;2.58;;;1.00;99.90;;;0.37;69.32;100623.69;5006383;28;20182;-45
2021/03/19 01:31:15;;;;;;;3.60;2.22;;;1.00;99.90;;;0.27;69.96;100625.84;5007050;28;20391;-47
2021/03/19 01:33:41;;;;;;;3.72;2.00;;;0.90;99.90;;;0.25;70.15;100624.28;5007220;28;20742;-45
2021/03/19 01:36:08;;;;;;;7.45;2.50;;;0.90;99.90;;;0.18;70.54;100623.72;5007133;28;20132;-44
2021/03/19 01:38:37;;;;;;;4.90;2.53;;;0.80;99.90;;;0.16;70.74;100622.16;5005498;28;20088;-42
2021/03/19 01:41:05;;;;;;;4.72;2.00;;;0.80;99.90;;;0.19;70.68;100627.13;5004392;28;20066;-43
2021/03/19 01:44:04;;;;;;;4.80;2.08;;;0.80;99.90;;;0.23;70.53;100623.50;4989940;28;20346;-44
2021/03/19 01:47:26;;;;;;;3.75;1.80;;;0.80;99.90;;;0.27;70.50;100630.16;5008628;28;20050;-43
2021/03/19 01:50:48;;;;;;;5.32;2.53;;;0.80;99.90;;;0.30;70.85;100623.16;5000461;28;20068;-42
2021/03/19 01:54:10;;;;;;;3.80;2.05;;;0.90;99.90;;;0.30;70.58;100620.56;4990434;28;20042;-45
2021/03/19 01:57:32;;;;;;;4.90;2.15;;;0.80;99.90;;;0.16;71.25;100617.84;4989781;28;20340;-45
2021/03/19 02:00:54;;;;;;;4.55;2.25;;;0.80;99.90;;;0.08;72.19;100621.69;5003004;28;20045;-47
2021/03/19 02:04:16;;;;;;;3.10;1.85;;;0.70;99.90;;;0.09;70.98;100619.06;5008668;28;20046;-46
2021/03/19 02:07:38;;;;;;;5.65;1.88;;;0.70;99.90;;;0.18;71.22;100613.50;4989332;28;20045;-45
2021/03/19 02:10:59;;;;;;;3.72;1.65;;;0.70;99.90;;;0.16;71.53;100607.59;4989969;28;20092;-42
2021/03/19 02:14:21;;;;;;;3.92;1.80;;;0.70;99.90;;;0.15;70.89;100605.13;4989271;28;20042;-42
2021/03/19 02:17:44;;;;;;;3.92;1.95;;;0.70;99.90;;;0.08;70.25;100604.59;4989480;28;20043;-42
2021/03/19 02:21:06;;;;;;;3.35;1.20;;;0.70;99.90;;;0.03;70.45;100603.16;4996940;28;20121;-47
2021/03/19 02:24:27;;;;;;;4.65;1.63;;;0.60;99.90;;;0.01;70.90;100608.34;5008583;28;20037;-47
2021/03/19 02:27:49;;;;;;;2.58;1.23;;;0.60;99.90;;;0.13;70.14;100605.19;4989256;28;20053;-42
2021/03/19 02:31:12;;;;;;;3.90;1.27;;;0.60;99.90;;;0.31;69.38;100606.88;4995549;28;20046;-43
2021/03/19 02:33:58;;;;;;;5.47;1.63;;;0.80;99.90;;;0.29;69.34;100595.84;5008593;28;20042;-42
2021/03/19 02:36:28;;;;;;;4.90;1.25;;;0.80;99.90;;;0.33;68.51;100602.50;4989406;28;20125;-43
2021/03/19 02:38:54;;;;;;;5.32;1.40;;;0.90;99.90;;;0.36;68.33;100598.13;4993988;28;20034;-42
2021/03/19 02:41:22;;;;;;;3.22;1.35;;;0.90;99.90;;;0.35;68.65;100599.03;5006062;28;20206;-43
2021/03/19 02:43:48;;;;;;;3.08;1.45;;;0.90;99.90;;;0.23;69.10;100598.72;4993851;28;20089;-45
2021/03/19 02:46:14;;;;;;;5.72;1.42;;;0.80;99.90;;;0.19;69.43;100596.38;5002340;28;20041;-42
2021/03/19 02:48:40;;;;;;;5.03;1.83;;;0.80;99.90;;;0.29;70.38;100603.53;5023403;28;20117;-48
2021/03/19 02:51:12;;;;;;;7.38;2.20;;;0.80;99.90;;;0.33;69.12;100599.94;5006835;28;20046;-48
2021/03/19 02:53:38;;;;;;;8.20;2.53;;;0.90;99.90;;;0.37;69.63;100603.16;4988866;28;20068;-45
2021/03/19 02:56:11;;;;;;;8.73;2.33;;;0.90;99.90;;;0.41;69.45;100591.84;4999167;28;20070;-47
2021/03/19 02:58:37;;;;;;;6.88;2.13;;;1.00;99.90;;;0.42;69.01;100593.53;5008484;28;20046;-43
2021/03/19 03:01:05;;;;;;;5.43;1.63;;;1.00;99.90;;;0.39;69.07;100595.41;5007224;28;20146;-42
2021/03/19 03:03:32;;;;;;;6.18;1.40;;;1.00;99.90;;;0.41;68.77;100593.59;5008013;28;20056;-44
2021/03/19 03:05:58;;;;;;;6.95;1.55;;;1.00;99.90;;;0.42;68.88;100597.81;5007538;28;20066;-43
2021/03/19 03:08:24;;;;;;;3.40;1.02;;;1.00;99.90;;;0.44;68.25;100603.69;5007324;28;20125;-44
2021/03/19 03:10:54;;;;;;;6.47;1.55;;;1.00;99.90;;;0.47;68.25;100600.97;5007296;28;20680;-44
2021/03/19 03:13:21;;;;;;;5.78;2.00;;;1.00;99.90;;;0.37;68.76;100603.16;5007730;28;20069;-45
2021/03/19 03:15:47;;;;;;;5.47;1.80;;;1.00;99.90;;;0.37;69.00;100599.78;5019653;28;20034;-48
2021/03/19 03:18:14;;;;;;;6.63;1.60;;;0.90;99.90;;;0.31;68.77;100601.72;5006721;28;20422;-43
2021/03/19 03:20:53;;;;;;;6.47;1.55;;;0.90;99.90;;;0.31;69.37;100599.16;5008775;28;20038;-46
2021/03/19 03:23:22;;;;;;;6.80;2.03;;;0.90;99.90;;;0.31;69.31;100596.63;5007582;28;20045;-44
2021/03/19 03:25:49;;;;;;;5.63;1.88;;;0.80;99.90;;;0.27;69.61;100594.28;5007910;28;20557;-46
2021/03/19 03:28:17;;;;;;;6.03;2.03;;;0.90;99.90;;;0.28;69.33;100594.19;5004612;28;20040;-42
2021/03/19 03:30:47;;;;;;;5.05;1.58;;;0.90;99.90;;;0.32;69.29;100598.28;5023121;28;20053;-42
2021/03/19 03:33:14;;;;;;;6.47;1.95;;;0.90;99.90;;;0.37;69.08;100592.09;5004677;28;20564;-42
2021/03/19 03:35:42;;;;;;;3.22;1.27;;;0.90;99.90;;;0.46;68.55;100599.31;5022847;28;20490;-42
2021/03/19 03:38:13;;;;;;;4.38;1.45;;;1.00;99.90;;;0.53;68.25;100583.53;5009331;28;20127;-47
2021/03/19 03:40:46;;;;;;;4.65;1.08;;;1.00;99.90;;;0.54;67.95;100590.31;5011678;28;20038;-43
2021/03/19 03:43:14;;;;;;;5.70;1.40;;;1.10;99.90;;;0.47;68.04;100585.59;5022626;28;20611;-43
2021/03/19 03:45:42;;;;;;;3.70;1.48;;;1.10;99.90;;;0.39;67.70;100590.28;5011748;28;20042;-46
2021/03/19 03:48:10;;;;;;;3.92;1.60;;;1.00;99.90;;;0.30;68.14;100584.69;5007948;28;20045;-44
2021/03/19 03:50:38;;;;;;;5.03;1.15;;;0.90;99.90;;;0.27;68.56;100584.84;5009131;28;20065;-42
2021/03/19 03:53:06;;;;;;;5.10;1.50;;;0.80;99.90;;;0.28;69.16;100581.38;5009568;28;20404;-43
2021/03/19 03:55:33;;;;;;;8.57;1.80;;;0.90;99.90;;;0.20;69.15;100577.53;5010843;28;20052;-43
2021/03/19 03:57:59;;;;;;;6.22;1.20;;;0.80;99.90;;;0.17;69.97;100577.69;5010144;28;20030;-45
2021/03/19 04:00:25;;;;;;;5.50;1.23;;;0.80;99.90;;;0.22;69.80;100584.25;5010567;28;20033;-47
2021/03/19 04:02:52;;;;;;;6.63;1.85;;;0.80;99.90;;;0.19;69.79;100579.28;5011015;28;20037;-45
2021/03/19 04:05:33;;;;;;;9.13;1.90;;;0.80;99.90;;;0.17;70.10;100583.63;5011149;28;20026;-43
2021/03/19 04:07:59;;;;;;;5.38;1.45;;;0.70;99.90;;;0.14;69.77;100583.78;4991579;28;20206;-42
2021/03/19 04:10:25;;;;;;;4.07;1.80;;;0.70;99.90;;;0.09;69.84;100583.19;4991393;28;20039;-46
2021/03/19 04:12:51;;;;;;;4.18;1.42;;;0.70;99.90;;;0.08;69.78;100583.25;4992597;28;20116;-42
2021/03/19 04:15:18;;;;;;;5.43;1.38;;;0.70;99.90;;;0.08;70.18;100584.09;4991427;28;20053;-42
2021/03/19 04:17:46;;;;;;;4.53;1.73;;;0.60;99.90;;;0.07;70.86;100574.75;5006051;28;20400;-43
2021/03/19 04:20:16;;;;;;;4.63;1.10;;;0.70;99.90;;;0.10;70.16;100577.16;5011105;28;20479;-42
2021/03/19 04:22:42;;;;;;;4.60;1.10;;;0.60;99.90;;;0.15;69.98;100570.06;5020981;28;20050;-42
2021/03/19 04:25:09;;;;;;;3.45;1.08;;;0.70;99.90;;;0.18;69.10;100577.63;5011108;28;20117;-44
2021/03/19 04:27:47;;;;;;;3.45;1.08;;;0.70;99.90;;;0.22;69.19;100574.00;5010064;28;20033;-47
2021/03/19 04:30:26;;;;;;;3.15;0.70;;;0.70;99.90;;;0.25;68.48;100581.53;5010613;28;20121;-48
2021/03/19 04:32:53;;;;;;;3.80;1.40;;;0.80;99.90;;;0.24;68.15;100576.47;5002330;28;20097;-43
2021/03/19 04:35:22;;;;;;;4.82;1.50;;;0.80;99.90;;;0.12;68.41;100577.91;5010720;28;20488;-46
2021/03/19 04:37:50;;;;;;;3.20;1.30;;;0.70;99.90;;;-0.04;69.35;100570.16;5007264;28;20512;-43
2021/03/19 04:40:17;;;;;;;21.85;2.63;;;0.60;99.90;;;-0.14;68.92;100568.13;5009746;28;20042;-48
2021/03/19 04:42:43;;;;;;;5.03;1.88;;;0.50;99.90;;;-0.15;69.15;100572.41;5023879;28;20481;-45
2021/03/19 04:45:12;;;;;;;2.20;0.98;;;0.40;99.90;;;-0.10;69.54;100575.59;5010383;28;20042;-46
2021/03/19 04:47:38;;;;;;;2.72;0.93;;;0.50;99.90;;;0.00;68.68;100570.84;4995346;28;20470;-40
2021/03/19 04:50:11;;;;;;;2.53;0.98;;;0.50;99.90;;;0.07;69.02;100577.31;5007104;28;20479;-41
2021/03/19 04:52:37;;;;;;;3.42;1.40;;;0.60;99.90;;;0.00;69.83;100576.78;5005904;28;20038;-40
2021/03/19 04:55:06;;;;;;;4.63;1.98;;;0.60;99.90;;;-0.05;70.35;100577.94;5010286;28;20064;-40
2021/03/19 04:57:35;;;;;;;3.47;1.40;;;0.50;99.90;;;-0.08;70.12;100583.19;5009235;28;20401;-40
2021/03/19 05:00:02;;;;;;;4.43;1.42;;;0.50;99.90;;;-0.09;70.99;100581.53;5010576;28;20038;-40
2021/03/19 05:02:46;;;;;;;4.07;1.38;;;0.50;99.90;;;-0.09;71.61;100579.81;5008549;28;20050;-40
2021/03/19 05:05:19;;;;;;;4.43;1.45;;;0.50;99.90;;;-0.03;71.64;100582.06;5010507;28;20030;-40
2021/03/19 05:07:46;;;;;;;3.50;1.98;;;0.50;99.90;;;-0.06;72.06;100583.97;5005094;28;20512;-40
2021/03/19 05:10:15;;;;;;;5.72;2.15;;;0.50;99.90;;;-0.10;71.43;100590.97;5024777;28;20080;-40
2021/03/19 05:12:44;;;;;;;5.65;1.80;;;0.50;99.90;;;-0.12;73.09;100591.94;4997296;28;20141;-40
2021/03/19 05:15:11;;;;;;;8.52;2.22;;;0.50;99.90;;;-0.13;72.09;100593.66;5010046;28;20038;-41
2021/03/19 05:17:37;;;;;;;6.00;2.20;;;0.50;99.90;;;-0.14;71.61;100588.63;5009306;28;20424;-40
2021/03/19 05:20:08;;;;;;;7.60;1.98;;;0.50;99.90;;;-0.15;72.66;100590.34;5009772;28;20100;-40
2021/03/19 05:22:34;;;;;;;5.35;1.50;;;0.40;99.90;;;-0.05;73.04;100598.41;5020056;28;20054;-40
2021/03/19 05:25:00;;;;;;;4.70;1.75;;;0.50;99.90;;;0.09;73.22;100592.59;4990265;28;20042;-40
2021/03/19 05:27:26;;;;;;;10.20;2.28;;;0.60;99.90;;;0.07;71.93;100597.81;4999530;28;20353;-40
2021/03/19 05:29:57;;;;;;;8.82;2.80;;;0.70;99.90;;;0.05;72.10;100601.34;5009806;28;20072;-40
2021/03/19 05:32:25;;;;;;;6.82;2.97;;;0.60;99.90;;;0.07;72.85;100599.53;5020165;28;20406;-40
2021/03/19 05:34:52;;;;;;;8.10;2.25;;;0.70;99.90;;;0.07;72.70;100604.66;5008685;28;20046;-40
2021/03/19 05:37:20;;;;;;;7.32;2.25;;;0.70;99.90;;;0.12;73.37;100600.97;5008815;28;20037;-40
2021/03/19 05:39:46;;;;;;;4.95;1.83;;;0.70;99.90;;;0.17;72.21;100600.75;5008608;28;20034;-40
2021/03/19 05:42:24;;;;;;;9.70;2.25;;;0.70;99.90;;;0.57;71.40;100602.16;5000101;28;20034;-40
2021/03/19 05:44:58;;;;;;;7.63;2.95;;;1.00;99.90;;;2.25;67.32;100604.97;5021697;28;20041;-40
2021/03/19 05:47:24;;;;;;;6.43;3.05;;;2.80;99.90;;;3.97;62.99;100609.00;5019934;28;20434;-41
2021/03/19 05:49:56;;;;;;;6.68;2.38;;;5.30;96.60;;;5.08;59.01;100600.69;5007457;28;20061;-41
2021/03/19 05:52:35;;;;;;;6.55;2.05;;;6.70;87.30;;;5.80;56.75;100604.19;5023056;28;20029;-41
2021/03/19 05:55:35;;;;;;;5.03;2.88;;;8.20;74.70;;;6.39;53.32;100604.19;5008767;28;20053;-41
2021/03/19 05:58:01;;;;;;;5.78;2.33;;;9.50;65.70;;;7.10;53.46;100608.22;5004779;28;20046;-39
2021/03/19 06:00:28;;;;;;;6.05;2.60;;;10.20;63.40;;;7.41;52.47;100598.88;5004068;28;20046;-39
2021/03/19 06:02:55;;;;;;;6.82;2.35;;;11.00;59.60;;;7.14;52.65;100599.25;5007969;28;20045;-39
2021/03/19 06:05:26;;;;;;;10.27;2.53;;;11.20;57.40;;;7.50;52.27;100596.41;5008008;28;20054;-39
2021/03/19 06:07:56;;;;;;;8.00;2.78;;;11.50;57.00;;;7.61;50.47;100598.94;5005756;28;20034;-42
2021/03/19 06:10:41;;;;;;;6.88;2.97;;;11.50;54.90;;;7.26;50.16;100599.16;5008870;28;20133;-42
2021/03/19 06:13:24;;;;;;;8.73;5.35;;;11.70;54.60;;;6.91;49.89;100596.69;5005651;28;20081;-41
2021/03/19 06:16:27;;;;;;;8.00;4.25;;;11.20;53.30;;;7.06;48.57;100597.28;5023647;28;20046;-39
2021/03/19 06:18:55;;;;;;;10.32;3.15;;;10.90;53.90;;;7.08;49.67;100603.19;5005677;28;20057;-40
2021/03/19 06:21:49;;;;;;;6.25;2.10;;;10.30;54.70;;;6.02;50.27;100603.47;5023324;28;20046;-40
2021/03/19 06:24:26;;;;;;;6.57;3.08;;;8.60;57.70;;;5.19;53.52;100605.97;5006965;28;20060;-39
2021/03/19 06:27:10;;;;;;;6.85;2.22;;;7.10;63.20;;;4.49;55.75;100610.75;5008423;28;20030;-39
2021/03/19 06:29:57;;;;;;;6.72;2.75;;;6.00;66.30;;;3.91;56.25;100607.63;5007684;28;20125;-39
2021/03/19 06:32:29;;;;;;;6.65;3.28;;;5.10;70.20;;;3.79;57.43;100611.00;4988728;28;20034;-39
2021/03/19 06:35:13;;;;;;;8.23;3.05;;;4.90;72.90;;;3.66;57.63;100610.97;5004965;28;20038;-40
2021/03/19 06:37:45;;;;;;;9.50;2.90;;;4.60;74.60;;;3.38;58.62;100607.63;5005841;28;20120;-41
2021/03/19 06:40:29;;;;;;;7.15;3.30;;;4.40;77.40;;;3.16;59.30;100608.13;5007038;28;20045;-40
2021/03/19 06:43:13;;;;;;;6.47;2.60;;;4.10;79.00;;;2.86;60.37;100610.78;5003788;28;20042;-39
2021/03/19 06:45:39;;;;;;;7.35;3.08;;;3.90;82.50;;;2.77;61.14;100601.09;5021552;28;20113;-40
2021/03/19 06:48:25;;;;;;;7.30;3.13;;;3.60;87.80;;;2.88;60.44;100606.38;5006733;28;20530;-41
2021/03/19 06:50:51;;;;;;;8.23;3.20;;;3.60;89.00;;;3.15;59.82;100607.31;5020637;28;20084;-40
2021/03/19 06:53:25;;;;;;;7.57;2.83;;;3.80;90.30;;;2.78;61.52;100608.72;5007273;28;20101;-40
2021/03/19 06:55:54;;;;;;;10.15;4.10;;;3.60;92.00;;;3.05;61.25;100602.81;5008609;28;20402;-40
2021/03/19 06:58:50;;;;;;;10.05;3.42;;;3.70;93.30;;;3.37;60.16;100600.81;5006995;28;20568;-40
2021/03/19 07:01:37;;;;;;;11.48;4.47;;;4.00;92.60;;;3.64;59.30;100604.25;5002522;28;20076;-40
2021/03/19 07:04:33;;;;;;;9.48;3.35;;;4.40;91.40;;;3.76;58.58;100607.81;5008629;28;20054;-41
2021/03/19 07:07:18;;;;;;;10.63;3.63;;;4.60;89.90;;;3.96;57.93;100615.91;5007177;28;20076;-45
2021/03/19 07:10:21;;;;;;;8.48;2.45;;;4.60;89.40;;;3.52;58.43;100615.31;5007083;28;20168;-40
2021/03/19 07:13:01;;;;;;;14.43;4.50;;;4.40;89.10;;;3.76;58.41;100618.13;4994004;28;20269;-39
2021/03/19 07:16:08;;;;;;;9.90;4.03;;;4.40;90.30;;;3.96;57.62;100615.06;5001944;28;20038;-39
2021/03/19 07:19:04;;;;;;;11.15;3.42;;;4.50;89.70;;;4.18;56.68;100628.25;5005930;28;20546;-40
2021/03/19 07:21:51;;;;;;;4.95;2.10;;;4.70;89.00;;;4.25;55.97;100616.56;5009554;28;20057;-40
2021/03/19 07:24:29;;;;;;;7.70;3.38;;;4.90;87.20;;;4.37;56.37;100627.03;5011979;28;20068;-40
2021/03/19 07:27:21;;;;;;;9.52;3.92;;;4.90;87.20;;;4.46;55.65;100631.59;5025637;28;20046;-39
2021/03/19 07:29:56;;;;;;;10.52;3.53;;;5.00;84.80;;;4.59;55.32;100629.84;5011406;28;20118;-39
2021/03/19 07:33:07;;;;;;;7.05;2.80;;;5.10;83.50;;;4.63;53.75;100623.56;5007709;28;20042;-39
2021/03/19 07:36:19;;;;;;;10.05;2.95;;;5.20;82.10;;;5.06;53.06;100629.22;5022693;28;20044;-40
2021/03/19 07:39:07;;;;;;;10.68;3.13;;;5.40;81.30;;;5.36;52.51;100622.84;4995370;28;20042;-40
2021/03/19 07:41:48;;;;;;;4.13;2.33;;;5.70;80.00;;;5.59;51.37;100622.06;5007959;28;20450;-40
2021/03/19 07:45:00;;;;;;;3.95;2.38;;;6.00;77.40;;;5.82;49.92;100623.00;5009780;28;20044;-40
2021/03/19 07:47:47;;;;;;;7.55;2.38;;;6.20;75.20;;;5.64;51.33;100627.72;5011156;28;20033;-40
2021/03/19 07:50:22;;;;;;;9.65;3.40;;;6.30;75.10;;;5.89;51.80;100634.56;5008655;28;20350;-43
2021/03/19 07:53:19;;;;;;;10.38;2.67;;;6.40;75.80;;;5.80;50.77;100637.78;5011705;28;20056;-41
2021/03/19 07:56:17;;;;;;;8.55;2.65;;;6.40;75.40;;;5.95;49.61;100634.97;4991655;28;20076;-41
2021/03/19 07:59:12;;;;;;;4.78;2.67;;;6.50;71.90;;;6.20;48.36;100634.00;5005949;28;20518;-41
2021/03/19 08:01:49;;;;;;;4.45;2.00;;;6.60;71.80;;;6.41;47.88;100630.78;5001389;28;20048;-40
2021/03/19 08:04:50;;;;;;;3.85;1.75;;;6.90;70.30;;;6.53;47.99;100630.69;5009611;28;20042;-47
2021/03/19 08:07:52;;;;;;;5.28;2.03;;;7.00;69.10;;;6.68;46.49;100630.47;5009743;28;20128;-59
2021/03/19 08:10:27;;;;;;;4.57;1.70;;;7.10;67.40;;;6.69;46.62;100632.94;5010301;28;20045;-56
2021/03/19 08:13:16;;;;;;;5.13;1.90;;;7.10;66.50;;;6.80;45.91;100627.78;5009120;28;20116;-54
2021/03/19 08:15:53;;;;;;;3.85;1.88;;;7.20;67.20;;;7.04;46.42;100626.84;5010154;28;20046;-58
2021/03/19 08:18:47;;;;;;;4.82;1.77;;;7.30;66.20;;;7.07;45.19;100631.81;5011110;28;20541;-60
2021/03/19 08:21:23;;;;;;;2.42;1.23;;;7.60;66.20;;;7.01;45.37;100627.91;5010241;28;20481;-54
2021/03/19 08:24:11;;;;;;;5.05;1.95;;;7.60;64.40;;;7.26;45.03;100624.22;5010049;28;20026;-50
2021/03/19 08:27:02;;;;;;;8.52;2.30;;;7.80;64.00;;;7.28;44.60;100627.53;5006331;28;20387;-57
2021/03/19 08:29:46;;;;;;;3.08;1.73;;;7.80;63.20;;;7.37;42.43;100615.63;5010026;28;20062;-54
2021/03/19 08:32:49;;;;;;;3.17;1.42;;;7.80;61.70;;;7.74;42.93;100623.91;5021753;28;20033;-56
2021/03/19 08:35:27;;;;;;;2.85;1.52;;;8.00;62.50;;;7.83;42.31;100618.81;4995210;28;20058;-51
2021/03/19 08:38:25;;;;;;;4.15;2.05;;;8.20;62.10;;;8.09;41.98;100624.47;5010915;28;20046;-51
2021/03/19 08:40:57;;;;;;;2.47;1.27;;;8.40;61.20;;;7.90;41.58;100619.16;5025513;28;20127;-60
2021/03/19 08:43:38;;;;;;;4.32;1.30;;;8.50;59.00;;;7.94;41.84;100618.78;5025167;28;20478;-55
2021/03/19 08:46:31;;;;;;;4.82;1.60;;;8.30;60.10;;;8.21;41.71;100620.88;5010133;28;20037;-53
2021/03/19 08:49:25;;;;;;;2.88;1.42;;;8.40;59.80;;;8.59;39.87;100615.13;5010422;28;20041;-57
2021/03/19 08:51:54;;;;;;;2.58;1.30;;;8.80;58.70;;;8.83;41.28;100608.84;5004391;28;20533;-51
2021/03/19 08:54:32;;;;;;;3.35;1.10;;;9.10;58.40;;;9.06;40.56;100605.09;5025612;28;20081;-57
2021/03/19 08:57:04;;;;;;;2.90;1.38;;;9.40;58.20;;;9.18;40.09;100605.84;5010644;28;20525;-54
2021/03/19 08:59:33;;;;;;;2.55;1.42;;;9.60;56.80;;;9.24;40.59;100610.50;5004521;28;20470;-56
2021/03/19 09:02:01;;;;;;;2.95;1.45;;;9.70;55.80;;;9.47;40.72;100606.72;5010718;28;20207;-58
2021/03/19 09:04:57;;;;;;;4.97;1.42;;;9.80;56.70;;;9.40;38.17;100604.81;5008708;28;20405;-61
2021/03/19 09:07:28;;;;;;;2.13;1.15;;;9.90;53.90;;;9.76;39.91;100606.78;5008109;28;20099;-56
2021/03/19 09:10:21;;;;;;;2.53;1.50;;;10.10;55.60;;;9.97;36.91;100597.03;5004275;28;20038;-62
2021/03/19 09:12:57;;;;;;;1.50;1.00;;;10.30;54.80;;;9.58;37.26;100603.19;5005241;28;20046;-53
2021/03/19 09:15:23;;;;;;;3.45;1.10;;;10.10;51.60;;;9.04;38.62;100600.97;5002566;28;20145;-54
2021/03/19 09:18:25;;;;;;;5.03;0.88;;;9.70;52.10;;;8.96;36.87;100594.69;5008282;28;20037;-53
2021/03/19 09:21:10;;;;;;;4.03;1.08;;;9.50;51.60;;;9.27;37.73;100587.66;5021868;28;20090;-57
2021/03/19 09:24:23;;;;;;;2.60;1.50;;;9.70;52.10;;;9.47;36.99;100593.72;4996589;28;20065;-52
2021/03/19 09:27:26;;;;;;;4.03;2.53;;;9.80;52.10;;;9.90;36.17;100589.94;4990511;28;20104;-53
2021/03/19 09:30:41;;;;;;;5.13;1.60;;;10.20;52.00;;;10.06;35.32;100582.38;5009684;28;20385;-49
2021/03/19 09:33:31;;;;;;;2.22;1.30;;;10.50;52.30;;;10.20;37.09;100582.00;4998895;28;20026;-53
2021/03/19 09:35:58;;;;;;;2.13;1.20;;;10.50;52.30;;;10.58;37.26;100581.06;5017437;28;20037;-55
2021/03/19 09:38:24;;;;;;;2.75;1.20;;;10.90;51.70;;;11.04;36.53;100594.22;5000312;28;20038;-47
2021/03/19 09:41:08;;;;;;;2.95;1.65;;;11.30;51.20;;;11.41;34.67;100579.31;5003265;28;20118;-54
2021/03/19 09:43:50;;;;;;;2.13;1.30;;;11.60;50.50;;;10.72;33.89;100577.19;5009389;28;20060;-49
2021/03/19 09:46:31;;;;;;;2.22;1.00;;;11.50;47.90;;;10.14;35.71;100579.09;5006800;28;20037;-52
2021/03/19 09:49:24;;;;;;;3.08;1.20;;;11.10;50.10;;;10.21;36.67;100578.44;5000576;28;20100;-49
2021/03/19 09:51:49;;;;;;;1.73;1.13;;;10.70;50.60;;;10.98;36.31;100575.56;5003042;28;20104;-53
2021/03/19 09:54:27;;;;;;;3.03;1.50;;;11.20;50.30;;;10.63;34.21;100568.44;4999159;28;20034;-50
2021/03/19 09:57:02;;;;;;;1.85;0.85;;;11.20;47.30;;;10.73;35.61;100570.19;5008013;28;20046;-54
2021/03/19 09:59:35;;;;;;;4.30;1.40;;;11.20;48.80;;;11.03;34.86;100567.31;5006660;28;20496;-48
2021/03/19 10:02:20;;;;;;;2.70;1.20;;;11.40;48.30;;;10.91;35.33;100566.69;5007627;28;20026;-45
2021/03/19 10:04:46;;;;;;;3.22;1.50;;;11.50;49.00;;;11.50;35.10;100567.16;5000794;28;20465;-51
2021/03/19 10:07:26;;;;;;;1.70;0.95;;;11.80;48.80;;;11.35;33.73;100563.41;5008850;28;20117;-48
2021/03/19 10:09:58;;;;;;;2.15;1.25;;;11.90;47.90;;;11.74;32.98;100566.59;5023629;28;20076;-50
2021/03/19 10:12:36;;;;;;;2.05;1.17;;;12.20;47.80;;;11.54;32.53;100558.91;5006085;28;20045;-46
2021/03/19 10:15:17;;;;;;;1.52;1.00;;;12.30;46.30;;;10.62;34.38;100566.81;5007884;28;20034;-52
2021/03/19 10:17:53;;;;;;;1.85;1.00;;;11.60;46.90;;;10.26;33.59;100560.59;5006309;28;20430;-47
2021/03/19 10:20:27;;;;;;;;;;;11.20;47.30;;;9.90;32.65;100556.94;5006570;28;20468;-51
2021/03/19 10:23:06;;;;;;;2.35;1.30;;;10.90;45.60;;;9.56;36.56;100556.50;5008596;28;20269;-48
2021/03/19 10:25:42;;;;;;;1.35;0.60;;;10.50;47.60;;;9.89;35.70;100562.28;5007893;28;20440;-52
2021/03/19 10:28:11;;;;;;;2.15;0.80;;;10.50;48.30;;;9.97;35.66;100555.38;4999350;28;20113;-49
2021/03/19 10:30:50;;;;;;;2.15;0.90;;;10.60;48.10;;;9.92;35.71;100554.97;5006681;28;20049;-53
2021/03/19 10:33:29;;;;;;;1.50;0.90;;;10.60;48.30;;;10.54;33.75;100552.84;5004516;28;20034;-49
2021/03/19 10:36:11;;;;;;;3.70;1.00;;;10.80;48.10;;;10.98;33.00;100549.50;5008475;28;20030;-54
2021/03/19 10:38:55;;;;;;;1.80;0.77;;;11.20;47.30;;;12.34;31.61;100553.69;5003189;28;20042;-51
2021/03/19 10:41:50;;;;;;;1.30;0.65;;;12.10;46.40;;;11.58;30.22;100551.59;5008679;28;20046;-48
2021/03/19 10:44:39;;;;;;;1.60;0.80;;;12.30;45.10;;;10.85;31.42;100543.81;5020620;28;20117;-48
2021/03/19 10:47:20;;;;;;;1.20;0.90;;;11.80;44.00;;;11.03;31.89;100549.06;4966208;23;20096;-57
2021/03/19 10:49:59;;;;;;;1.17;0.60;;;11.60;44.80;;;11.57;29.30;100550.78;5003578;28;20105;-49
2021/03/19 10:52:41;;;;;;;2.20;0.80;;;11.90;44.00;;;12.57;29.39;100549.59;5000630;28;20072;-53
2021/03/19 10:55:33;;;;;;;1.63;0.70;;;12.70;43.50;;;11.98;29.81;100545.94;4984565;28;20058;-51
2021/03/19 10:58:36;;;;;;;1.42;0.60;;;12.80;43.30;;;12.24;30.86;100546.78;4997317;28;20100;-53
2021/03/19 11:01:33;;;;;;;2.00;0.90;;;12.60;44.30;;;12.12;30.93;100548.00;4981637;28;20078;-52
2021/03/19 11:04:20;;;;;;;2.10;0.70;;;12.80;45.20;;;11.70;32.76;100547.81;4987517;28;20058;-49
2021/03/19 11:06:46;;;;;;;1.15;0.50;;;12.50;44.70;;;11.35;33.20;100547.78;4988952;28;20121;-53
2021/03/19 11:09:20;;;;;;;3.35;0.70;;;12.20;44.90;;;11.41;32.78;100550.63;4987654;28;20053;-53